Time;durP1;ratioP1;P1;durP2;ratioP2;P2;SDS_P1;SDS_P2;PMS_P1;PMS_P2;Temp;Humidity;BMP_temperature;BMP_pressure;BME280_temperature;BME280_humidity;BME280_pressure;Samples;Min_cycle;Max_cycle;Signal;HPM_P1;HPM_P2
2022/04/11 00:01:09;;;;;;;;;17.00;15.00;;;;;9.52;59.80;99308.75;5077726;28;45312;-76
2022/04/11 00:03:34;;;;;;;;;19.33;15.33;;;;;9.50;59.84;99300.03;5077466;27;45515;-76
2022/04/11 00:06:00;;;;;;;;;17.33;14.00;;;;;9.48;59.91;99303.63;5077530;28;46609;-76
2022/04/11 00:08:25;;;;;;;;;17.00;14.00;;;;;9.46;59.83;99306.31;5077551;27;45393;-76
2022/04/11 00:10:50;;;;;;;;;14.00;12.67;;;;;9.45;59.91;99301.97;5077574;27;45588;-76
2022/04/11 00:13:16;;;;;;;;;13.00;13.00;;;;;9.43;59.90;99302.00;5076405;28;45499;-76
2022/04/11 00:15:41;;;;;;;;;12.67;11.33;;;;;9.44;59.86;99303.72;5076839;28;46618;-76
2022/04/11 00:18:08;;;;;;;;;14.00;13.00;;;;;9.46;59.97;99303.69;5077139;28;45476;-76
2022/04/11 00:20:34;;;;;;;;;13.67;13.67;;;;;9.43;59.99;99301.13;5093207;27;45464;-76
2022/04/11 00:23:00;;;;;;;;;8.00;4.67;;;;;9.43;59.87;99299.38;5076948;27;45324;-76
2022/04/11 00:25:26;;;;;;;;;16.67;15.00;;;;;9.41;60.05;99295.06;5077007;27;46289;-76
2022/04/11 00:27:53;;;;;;;;;11.33;11.00;;;;;9.39;60.08;99303.00;5077268;28;45414;-76
2022/04/11 00:30:19;;;;;;;;;17.67;14.00;;;;;9.38;60.31;99293.38;5076054;27;45391;-76
2022/04/11 00:32:44;;;;;;;;;15.67;14.00;;;;;9.38;60.30;99290.75;5076579;28;45265;-76
2022/04/11 00:35:10;;;;;;;;;15.33;15.00;;;;;9.38;60.30;99292.56;5076513;28;45798;-76
2022/04/11 00:37:37;;;;;;;;;13.67;12.67;;;;;9.38;60.37;99290.75;5076371;27;45348;-76
2022/04/11 00:40:07;;;;;;;;;14.00;12.33;;;;;9.38;60.32;99285.50;5077175;27;45438;-76
2022/04/11 00:42:32;;;;;;;;;15.00;12.67;;;;;9.37;60.45;99288.22;5077041;27;45418;-76
2022/04/11 00:45:03;;;;;;;;;16.00;14.00;;;;;9.35;60.35;99288.25;5076372;28;46376;-76
2022/04/11 00:47:29;;;;;;;;;14.33;12.33;;;;;9.35;60.46;99284.75;5075843;28;45787;-76
2022/04/11 00:50:01;;;;;;;;;11.33;9.67;;;;;9.35;60.57;99285.63;5076970;27;45481;-76
2022/04/11 00:52:30;;;;;;;;;10.67;9.67;;;;;9.35;60.40;99293.50;5076803;27;45489;-76
2022/04/11 00:54:57;;;;;;;;;10.00;10.00;;;;;9.35;60.38;99295.28;5076296;27;47947;-76
2022/04/11 00:57:23;;;;;;;;;8.67;8.33;;;;;9.32;60.19;99290.13;5076654;27;45542;-76
2022/04/11 00:59:49;;;;;;;;;9.33;8.33;;;;;9.30;60.24;99291.94;5076897;28;45416;-77
2022/04/11 01:02:14;;;;;;;;;11.00;8.00;;;;;9.27;60.60;99292.03;5076714;27;45402;-76
2022/04/11 01:04:41;;;;;;;;;13.67;11.33;;;;;9.26;60.71;99292.94;5076356;27;46358;-76
2022/04/11 01:07:08;;;;;;;;;8.00;7.00;;;;;9.23;60.64;99296.50;5076353;27;45403;-76
2022/04/11 01:09:34;;;;;;;;;6.33;6.00;;;;;9.21;60.42;99298.38;5076555;27;45472;-76
2022/04/11 01:12:01;;;;;;;;;7.00;7.00;;;;;9.20;60.78;99298.41;5076483;27;45440;-76
2022/04/11 01:14:27;;;;;;;;;6.33;5.00;;;;;9.18;60.92;99297.59;5074924;28;47682;-76
2022/04/11 01:16:52;;;;;;;;;6.67;6.00;;;;;9.13;60.96;99289.84;5076168;27;45494;-76
2022/04/11 01:19:19;;;;;;;;;10.00;7.00;;;;;9.11;61.29;99294.28;5075039;28;45354;-76
2022/04/11 01:21:47;;;;;;;;;6.00;6.00;;;;;9.08;61.24;99286.47;5076225;27;45370;-76
2022/04/11 01:24:15;;;;;;;;;6.33;6.33;;;;;9.04;61.33;99293.63;5075894;27;45553;-76
2022/04/11 01:26:42;;;;;;;;;7.00;7.00;;;;;9.01;61.32;99290.22;5076030;27;45505;-76
2022/04/11 01:29:08;;;;;;;;;11.67;8.33;;;;;8.97;61.60;99284.19;5076543;27;45412;-76
2022/04/11 01:31:34;;;;;;;;;9.33;8.00;;;;;8.95;61.69;99282.53;5075961;27;45422;-76
2022/04/11 01:34:00;;;;;;;;;10.00;7.33;;;;;8.90;61.70;99274.75;5062095;28;45310;-76
2022/04/11 01:36:25;;;;;;;;;8.67;7.33;;;;;8.87;61.45;99288.03;5076219;28;45263;-76
2022/04/11 01:38:51;;;;;;;;;8.33;8.33;;;;;8.84;62.03;99290.75;5075007;27;45332;-76
2022/04/11 01:41:17;;;;;;;;;7.00;7.00;;;;;8.82;61.77;99291.69;5075245;28;45337;-76
2022/04/11 01:43:42;;;;;;;;;11.00;10.00;;;;;8.78;61.77;99284.81;5073317;28;45400;-76
2022/04/11 01:46:07;;;;;;;;;6.67;6.33;;;;;8.74;61.94;99278.78;5074203;28;45360;-76
2022/04/11 01:48:33;;;;;;;;;5.67;5.00;;;;;8.71;62.45;99281.53;5074071;27;46183;-76
2022/04/11 01:50:58;;;;;;;;;6.00;6.00;;;;;8.67;62.83;99285.13;5073593;28;45558;-76
2022/04/11 01:53:24;;;;;;;;;7.00;7.00;;;;;8.62;62.63;99293.16;5073825;28;47251;-76
2022/04/11 01:55:49;;;;;;;;;9.00;9.00;;;;;8.57;62.26;99294.19;5075902;27;45616;-76
2022/04/11 01:58:15;;;;;;;;;5.67;5.67;;;;;8.53;62.39;99296.06;5074858;28;45420;-76
2022/04/11 02:00:41;;;;;;;;;10.00;8.00;;;;;8.50;62.20;99301.41;5074484;28;45605;-76
2022/04/11 02:03:08;;;;;;;;;7.33;7.33;;;;;8.46;62.36;99291.00;5075805;28;45632;-76
2022/04/11 02:05:34;;;;;;;;;5.67;5.67;;;;;8.43;62.83;99289.31;5075639;27;45471;-76
2022/04/11 02:08:00;;;;;;;;;7.33;7.33;;;;;8.38;63.23;99296.47;5074131;28;45401;-77
2022/04/11 02:10:27;;;;;;;;;8.33;8.33;;;;;8.33;63.77;99298.38;5075744;28;45619;-76
2022/04/11 02:12:53;;;;;;;;;7.00;7.00;;;;;8.29;64.12;99299.34;5075559;27;45597;-76
2022/04/11 02:15:18;;;;;;;;;10.00;8.00;;;;;8.25;64.33;99293.31;5075402;27;45281;-76
2022/04/11 02:17:48;;;;;;;;;10.00;9.00;;;;;8.23;64.14;99297.72;5075238;27;45317;-76
2022/04/11 02:20:13;;;;;;;;;5.67;5.67;;;;;8.19;64.37;99298.75;5075313;28;45484;-76
2022/04/11 02:22:55;;;;;;;;;10.00;7.33;;;;;8.18;64.68;99302.28;5075174;27;45539;-76
2022/04/11 02:25:22;;;;;;;;;8.00;8.00;;;;;8.15;64.89;99298.88;5073796;28;45508;-76
2022/04/11 02:27:48;;;;;;;;;8.00;6.00;;;;;8.11;64.97;99303.31;5075704;27;45420;-76
2022/04/11 02:30:16;;;;;;;;;10.00;10.00;;;;;8.10;64.83;99303.38;5075527;27;45308;-76
2022/04/11 02:32:42;;;;;;;;;4.33;4.33;;;;;8.06;64.92;99308.69;5075392;27;45637;-76
2022/04/11 02:35:08;;;;;;;;;6.67;6.67;;;;;8.05;64.58;99306.97;5075191;27;45225;-77
2022/04/11 02:37:34;;;;;;;;;6.00;6.00;;;;;8.04;64.78;99304.41;5073799;28;45476;-77
2022/04/11 02:40:01;;;;;;;;;5.00;5.00;;;;;8.05;64.45;99311.34;5075484;27;45488;-76
2022/04/11 02:42:28;;;;;;;;;2.00;2.00;;;;;8.02;64.56;99307.09;5073791;28;46813;-76
2022/04/11 02:44:54;;;;;;;;;8.00;6.00;;;;;7.97;64.40;99306.34;5073668;28;45454;-76
2022/04/11 02:47:20;;;;;;;;;8.00;4.00;;;;;7.96;64.10;99303.75;5073531;28;45464;-76
2022/04/11 02:49:46;;;;;;;;;9.00;8.00;;;;;7.95;64.02;99302.03;5073559;28;45512;-76
2022/04/11 02:52:12;;;;;;;;;10.00;5.00;;;;;7.93;64.03;99304.69;5074343;27;45370;-76
2022/04/11 02:54:38;;;;;;;;;5.00;4.33;;;;;7.91;64.10;99301.22;5090917;27;45259;-76
2022/04/11 02:57:04;;;;;;;;;6.00;5.00;;;;;7.90;64.47;99306.53;5075115;27;45344;-76
2022/04/11 02:59:32;;;;;;;;;9.33;6.00;;;;;7.87;64.62;99302.25;5075052;27;45296;-76
2022/04/11 03:01:58;;;;;;;;;8.00;7.00;;;;;7.83;65.09;99304.97;5078042;27;45555;-76
2022/04/11 03:04:23;;;;;;;;;5.33;4.67;;;;;7.79;65.26;99304.19;5078484;27;45464;-76
2022/04/11 03:06:49;;;;;;;;;8.67;7.67;;;;;7.78;65.61;99312.09;5078534;27;45494;-76
2022/04/11 03:09:14;;;;;;;;;8.00;5.00;;;;;7.75;65.53;99302.53;5078432;27;45447;-76
2022/04/11 03:11:40;;;;;;;;;6.33;6.33;;;;;7.75;65.99;99301.69;5078488;27;46154;-76
2022/04/11 03:14:06;;;;;;;;;3.00;3.00;;;;;7.73;65.84;99296.47;5078587;27;45259;-76
2022/04/11 03:16:31;;;;;;;;;5.33;5.33;;;;;7.70;66.26;99296.56;5093861;27;45482;-77
2022/04/11 03:18:57;;;;;;;;;7.33;5.67;;;;;7.69;66.16;99295.72;5078398;27;45448;-76
2022/04/11 03:21:22;;;;;;;;;10.00;9.33;;;;;7.67;66.43;99291.38;5078360;27;45521;-77
2022/04/11 03:23:48;;;;;;;;;9.00;9.00;;;;;7.63;66.66;99292.38;5077735;27;45332;-76
2022/04/11 03:26:13;;;;;;;;;8.67;7.33;;;;;7.59;67.03;99286.31;5078566;28;45378;-76
2022/04/11 03:28:39;;;;;;;;;11.00;11.00;;;;;7.56;67.04;99283.78;5078220;27;45383;-76
2022/04/11 03:31:04;;;;;;;;;10.33;8.00;;;;;7.54;67.26;99284.75;5078075;28;45418;-76
2022/04/11 03:33:29;;;;;;;;;10.00;9.00;;;;;7.51;67.51;99282.19;5078062;27;45566;-76
2022/04/11 03:35:55;;;;;;;;;13.67;9.67;;;;;7.48;67.65;99280.50;5078140;27;45310;-76
2022/04/11 03:38:20;;;;;;;;;7.67;7.00;;;;;7.46;67.68;99277.06;5077703;28;45313;-76
2022/04/11 03:40:46;;;;;;;;;10.00;9.33;;;;;7.44;67.76;99268.34;5078046;27;45607;-77
2022/04/11 03:43:11;;;;;;;;;10.67;9.33;;;;;7.43;67.85;99274.50;5076349;28;45360;-77
2022/04/11 03:45:37;;;;;;;;;11.33;10.33;;;;;7.40;68.04;99273.69;5077897;28;45427;-76
2022/04/11 03:48:02;;;;;;;;;10.67;9.33;;;;;7.37;68.10;99264.19;5074979;28;45748;-76
2022/04/11 03:50:28;;;;;;;;;10.00;9.67;;;;;7.34;68.54;99262.50;5077483;28;46365;-76
2022/04/11 03:52:54;;;;;;;;;13.33;11.00;;;;;7.32;68.27;99259.03;5076034;28;45313;-77
2022/04/11 03:55:19;;;;;;;;;12.67;10.00;;;;;7.29;68.66;99253.00;5078105;27;45492;-77
2022/04/11 03:57:45;;;;;;;;;10.00;10.00;;;;;7.28;68.53;99251.28;5077703;28;45525;-76
2022/04/11 04:00:11;;;;;;;;;9.00;9.00;;;;;7.24;68.65;99257.50;5077404;27;45823;-76
2022/04/11 04:02:37;;;;;;;;;9.33;9.33;;;;;7.22;68.47;99247.03;5077725;27;45407;-76
2022/04/11 04:05:02;;;;;;;;;11.00;11.00;;;;;7.19;67.83;99244.50;5073003;28;45516;-76
2022/04/11 04:07:28;;;;;;;;;9.00;9.00;;;;;7.17;67.79;99253.31;5071004;28;45869;-76
2022/04/11 04:09:53;;;;;;;;;16.00;14.00;;;;;7.15;68.15;99245.47;5077657;27;46228;-76
2022/04/11 04:12:20;;;;;;;;;16.67;15.00;;;;;7.14;68.28;99249.00;5076823;27;45503;-76
2022/04/11 04:14:47;;;;;;;;;27.33;23.67;;;;;7.14;68.33;99242.91;5077393;27;45430;-76
2022/04/11 04:17:12;;;;;;;;;26.00;23.67;;;;;7.13;68.19;99243.78;5075122;28;45470;-76
2022/04/11 04:19:38;;;;;;;;;25.67;24.67;;;;;7.12;67.94;99247.31;5076787;27;45534;-76
2022/04/11 04:22:04;;;;;;;;;32.00;28.67;;;;;7.10;68.46;99242.09;5076629;27;45312;-76
2022/04/11 04:24:32;;;;;;;;;22.67;20.67;;;;;7.08;68.09;99246.50;5077160;27;45433;-76
2022/04/11 04:26:57;;;;;;;;;24.00;21.33;;;;;7.06;68.25;99237.81;5077033;27;45316;-76
2022/04/11 04:29:22;;;;;;;;;18.00;16.33;;;;;7.02;68.44;99236.19;5077295;28;45692;-76
2022/04/11 04:31:49;;;;;;;;;17.67;17.67;;;;;7.01;68.24;99231.84;5077032;28;45437;-76
2022/04/11 04:34:15;;;;;;;;;18.33;17.00;;;;;7.01;68.41;99242.34;5076560;27;45239;-77
2022/04/11 04:36:40;;;;;;;;;15.67;11.33;;;;;6.99;68.36;99237.13;5074817;28;45704;-76
2022/04/11 04:39:06;;;;;;;;;14.00;14.00;;;;;7.00;68.40;99244.09;5076896;28;45532;-76
2022/04/11 04:41:31;;;;;;;;;16.33;15.33;;;;;6.97;68.25;99248.53;5076672;28;45344;-76
2022/04/11 04:43:57;;;;;;;;;14.33;13.33;;;;;6.96;68.33;99246.81;5076627;28;45473;-76
2022/04/11 04:46:22;;;;;;;;;15.00;15.00;;;;;6.94;68.26;99252.09;5076089;28;45559;-76
2022/04/11 04:48:48;;;;;;;;;13.33;13.33;;;;;6.97;68.33;99257.25;5076766;28;46495;-76
2022/04/11 04:51:14;;;;;;;;;8.67;8.33;;;;;6.97;68.60;99245.91;5076512;28;45495;-76
2022/04/11 04:53:40;;;;;;;;;12.00;12.00;;;;;6.95;67.92;99255.56;5076532;28;45204;-76
2022/04/11 04:56:05;;;;;;;;;9.67;8.33;;;;;6.94;68.44;99256.47;5076689;28;45368;-76
2022/04/11 04:58:31;;;;;;;;;10.67;10.00;;;;;6.91;68.33;99252.16;5076447;27;45420;-76
2022/04/11 05:00:56;;;;;;;;;15.33;14.67;;;;;6.89;68.67;99259.19;5076443;27;45427;-76
2022/04/11 05:03:22;;;;;;;;;12.67;12.67;;;;;6.89;69.12;99250.47;5076676;28;45425;-76
2022/04/11 05:05:47;;;;;;;;;12.33;9.33;;;;;6.88;68.97;99251.34;5076144;27;45283;-75
2022/04/11 05:08:12;;;;;;;;;11.67;8.00;;;;;6.89;68.84;99245.22;5091056;27;46047;-76
2022/04/11 05:10:38;;;;;;;;;10.33;10.33;;;;;6.88;68.81;99253.97;5076148;28;45381;-76
2022/04/11 05:13:03;;;;;;;;;14.33;10.00;;;;;6.90;68.84;99254.81;5076310;27;45425;-75
2022/04/11 05:15:29;;;;;;;;;10.33;10.00;;;;;6.91;69.01;99253.91;5075848;28;45343;-76
2022/04/11 05:17:55;;;;;;;;;16.33;15.67;;;;;6.90;69.28;99255.66;5074952;28;46469;-75
2022/04/11 05:20:20;;;;;;;;;14.33;11.33;;;;;6.92;68.94;99260.88;5073602;28;45408;-75
2022/04/11 05:22:46;;;;;;;;;13.33;11.00;;;;;6.93;69.15;99258.22;5075081;27;45342;-75
2022/04/11 05:25:11;;;;;;;;;10.67;10.00;;;;;6.93;68.82;99252.13;5074071;28;45502;-75
2022/04/11 05:27:37;;;;;;;;;11.67;10.00;;;;;6.96;68.92;99267.78;5075483;27;45911;-75
2022/04/11 05:30:05;;;;;;;;;13.67;13.67;;;;;6.97;69.22;99266.88;5075263;27;45354;-75
2022/04/11 05:32:32;;;;;;;;;8.33;6.67;;;;;7.00;68.90;99264.19;5062455;28;45417;-75
2022/04/11 05:34:57;;;;;;;;;12.33;10.00;;;;;7.05;68.67;99259.69;5075321;27;45410;-76
2022/04/11 05:37:23;;;;;;;;;10.00;9.00;;;;;7.09;69.02;99260.47;5073065;28;47936;-76
2022/04/11 05:39:48;;;;;;;;;14.00;12.00;;;;;7.14;68.93;99264.72;5073619;28;45502;-76
2022/04/11 05:42:13;;;;;;;;;11.33;11.33;;;;;7.18;68.84;99260.28;5075181;27;45691;-76
2022/04/11 05:44:39;;;;;;;;;13.00;11.00;;;;;7.19;68.80;99254.13;5074753;28;45395;-75
2022/04/11 05:47:05;;;;;;;;;20.00;13.33;;;;;7.22;68.49;99262.75;5074044;28;45377;-76
2022/04/11 05:49:30;;;;;;;;;14.67;13.33;;;;;7.24;68.59;99260.09;5074675;27;45382;-77
2022/04/11 05:51:55;;;;;;;;;10.00;10.00;;;;;7.26;68.68;99261.81;5074996;28;45457;-76
2022/04/11 05:54:21;;;;;;;;;12.67;11.33;;;;;7.32;68.73;99263.44;5075046;27;45495;-67
2022/04/11 05:56:46;;;;;;;;;11.33;10.00;;;;;7.42;68.41;99264.03;5074957;28;46269;-67
2022/04/11 05:59:12;;;;;;;;;12.67;12.00;;;;;7.48;68.43;99264.75;5075577;28;45459;-67
2022/04/11 06:01:40;;;;;;;;;14.33;12.00;;;;;7.55;68.33;99268.06;5075044;27;45546;-67
2022/04/11 06:04:05;;;;;;;;;12.00;11.33;;;;;7.61;67.97;99268.78;5070155;28;45485;-67
2022/04/11 06:06:31;;;;;;;;;15.00;13.00;;;;;7.67;67.89;99273.03;5056561;28;46422;-67
2022/04/11 06:08:56;;;;;;;;;16.00;14.67;;;;;7.73;67.83;99270.22;5073134;27;45438;-67
2022/04/11 06:11:22;;;;;;;;;17.33;15.33;;;;;7.79;67.64;99270.06;5074828;28;45398;-67
2022/04/11 06:13:47;;;;;;;;;9.67;9.00;;;;;7.84;67.13;99275.22;5075051;27;45421;-67
2022/04/11 06:16:13;;;;;;;;;12.00;11.33;;;;;7.89;66.76;99276.78;5073940;27;45895;-67
2022/04/11 06:18:39;;;;;;;;;9.33;8.33;;;;;7.93;66.99;99281.06;5073356;27;45393;-67
2022/04/11 06:21:05;;;;;;;;;11.00;10.33;;;;;7.98;66.62;99278.31;5074417;27;45416;-66
2022/04/11 06:23:30;;;;;;;;;19.67;17.00;;;;;8.03;66.66;99281.69;5073114;28;45518;-66
2022/04/11 06:25:56;;;;;;;;;10.00;9.00;;;;;8.06;66.37;99269.31;5073978;27;45922;-59
2022/04/11 06:28:21;;;;;;;;;16.67;15.33;;;;;8.10;66.20;99277.97;5072265;27;45482;-60
2022/04/11 06:30:46;;;;;;;;;11.33;10.00;;;;;8.16;66.00;99283.06;5073786;27;45467;-60
2022/04/11 06:33:12;;;;;;;;;11.00;10.00;;;;;8.24;65.67;99277.59;5089671;27;45417;-60
2022/04/11 06:35:37;;;;;;;;;9.33;8.67;;;;;8.30;65.26;99277.41;5073993;27;45556;-70
2022/04/11 06:38:03;;;;;;;;;9.00;9.00;;;;;8.35;64.86;99275.56;5070417;28;45414;-63
2022/04/11 06:40:28;;;;;;;;;11.33;11.33;;;;;8.41;64.81;99251.72;5072580;28;45279;-66
2022/04/11 06:42:54;;;;;;;;;13.00;10.33;;;;;8.46;64.81;99264.75;5073559;27;45437;-66
2022/04/11 06:45:19;;;;;;;;;11.00;10.33;;;;;8.53;64.58;99274.19;5073872;28;45661;-67
2022/04/11 06:47:47;;;;;;;;;10.00;7.33;;;;;8.59;64.14;99266.09;5072941;27;46082;-68
2022/04/11 06:50:13;;;;;;;;;6.00;6.00;;;;;8.65;63.65;99272.03;5073427;27;45413;-66
2022/04/11 06:52:39;;;;;;;;;8.33;8.33;;;;;8.75;63.71;99262.97;5073213;27;45498;-68
2022/04/11 06:55:05;;;;;;;;;12.00;10.00;;;;;8.88;63.14;99265.22;5073849;27;45463;-68
2022/04/11 06:57:30;;;;;;;;;11.00;10.00;;;;;8.99;63.03;99263.97;5068538;28;45490;-68
2022/04/11 07:00:01;;;;;;;;;9.67;7.00;;;;;9.12;62.64;99263.59;5071270;27;45365;-68
2022/04/11 07:02:26;;;;;;;;;12.00;11.33;;;;;9.22;62.59;99260.59;5074008;27;45416;-68
2022/04/11 07:04:52;;;;;;;;;9.33;9.00;;;;;9.33;63.17;99271.66;5067275;28;46541;-68
2022/04/11 07:07:18;;;;;;;;;8.00;8.00;;;;;9.42;62.08;99271.34;5071409;27;45390;-68
2022/04/11 07:09:43;;;;;;;;;6.00;6.00;;;;;9.51;61.43;99261.44;5066562;28;45466;-68
2022/04/11 07:12:09;;;;;;;;;10.67;8.33;;;;;9.57;61.29;99259.44;5071671;28;45460;-68
2022/04/11 07:14:35;;;;;;;;;13.33;10.67;;;;;9.62;61.65;99267.19;5072563;28;47905;-67
2022/04/11 07:17:00;;;;;;;;;13.33;11.00;;;;;9.61;60.96;99265.47;5072400;28;45297;-68
2022/04/11 07:19:25;;;;;;;;;9.33;9.33;;;;;9.54;61.16;99256.94;5074331;28;45444;-68
2022/04/11 07:21:51;;;;;;;;;19.00;16.00;;;;;9.50;60.73;99270.22;5073291;28;45461;-69
2022/04/11 07:24:16;;;;;;;;;11.33;11.33;;;;;9.47;61.70;99259.81;5064075;28;45398;-69
2022/04/11 07:26:41;;;;;;;;;13.33;11.67;;;;;9.46;61.24;99253.69;5069212;28;45407;-69
2022/04/11 07:29:07;;;;;;;;;18.67;15.67;;;;;9.47;61.50;99259.81;5073545;27;45391;-69
2022/04/11 07:31:33;;;;;;;;;11.67;9.33;;;;;9.52;60.66;99255.25;5072139;28;45875;-69
2022/04/11 07:33:58;;;;;;;;;8.67;8.67;;;;;9.58;60.69;99245.38;5073797;28;46266;-69
2022/04/11 07:36:24;;;;;;;;;9.33;9.00;;;;;9.67;60.88;99249.47;5071524;28;45446;-69
2022/04/11 07:38:49;;;;;;;;;12.33;11.00;;;;;9.72;60.15;99243.13;5071524;28;45863;-69
2022/04/11 07:41:15;;;;;;;;;11.00;8.67;;;;;9.77;60.24;99237.69;5063145;27;45256;-69
2022/04/11 07:43:40;;;;;;;;;11.00;11.00;;;;;9.87;60.21;99247.00;5070827;27;47977;-69
2022/04/11 07:46:06;;;;;;;;;12.00;11.00;;;;;9.86;59.94;99240.03;5072252;27;45471;-68
2022/04/11 07:48:35;;;;;;;;;16.00;12.33;;;;;9.87;60.15;99241.75;5074815;27;45398;-69
2022/04/11 07:51:00;;;;;;;;;9.33;9.33;;;;;9.90;59.52;99241.59;5074992;27;45340;-69
2022/04/11 07:53:27;;;;;;;;;12.67;9.33;;;;;9.94;59.50;99239.72;5076034;27;46000;-69
2022/04/11 07:55:52;;;;;;;;;11.00;11.00;;;;;9.94;59.58;99242.38;5076740;27;45564;-69
2022/04/11 07:58:19;;;;;;;;;15.00;14.00;;;;;9.94;59.87;99239.72;5075179;27;45488;-69
2022/04/11 08:00:45;;;;;;;;;14.33;11.67;;;;;9.98;59.87;99231.69;5076475;28;45421;-68
2022/04/11 08:03:11;;;;;;;;;14.33;12.00;;;;;10.04;59.41;99220.94;5076696;27;45376;-68
2022/04/11 08:05:36;;;;;;;;;8.67;7.00;;;;;10.06;59.46;99215.56;5073891;27;45523;-68
2022/04/11 08:08:02;;;;;;;;;12.33;12.33;;;;;10.13;59.85;99228.50;5070829;27;45741;-68
2022/04/11 08:10:27;;;;;;;;;11.33;10.00;;;;;10.27;59.56;99229.78;5076226;27;45491;-68
2022/04/11 08:12:58;;;;;;;;;12.67;12.67;;;;;10.39;59.31;99227.53;5076151;28;45352;-68
2022/04/11 08:15:25;;;;;;;;;9.00;8.00;;;;;10.50;58.69;99224.50;5076566;27;45367;-68
2022/04/11 08:17:51;;;;;;;;;9.00;6.33;;;;;10.61;57.99;99213.53;5076475;27;45324;-68
2022/04/11 08:20:16;;;;;;;;;11.67;10.00;;;;;10.64;57.58;99218.72;5076686;27;45539;-68
2022/04/11 08:22:42;;;;;;;;;12.00;10.67;;;;;10.72;58.71;99222.78;5075981;27;46437;-68
2022/04/11 08:25:11;;;;;;;;;12.00;10.00;;;;;10.87;57.99;99220.47;5076094;27;45312;-68
2022/04/11 08:27:37;;;;;;;;;10.33;9.00;;;;;11.01;57.29;99218.13;5075537;28;45475;-69
2022/04/11 08:30:03;;;;;;;;;12.67;10.00;;;;;11.09;57.37;99213.38;5076411;27;45316;-68
2022/04/11 08:32:37;;;;;;;;;10.00;10.00;;;;;11.25;57.61;99210.97;5076034;28;45771;-68
2022/04/11 08:35:03;;;;;;;;;10.67;9.67;;;;;11.38;57.15;99207.78;5076415;27;45469;-68
2022/04/11 08:37:28;;;;;;;;;6.00;6.00;;;;;11.53;56.16;99204.50;5074246;27;45396;-69
2022/04/11 08:39:54;;;;;;;;;14.00;10.67;;;;;11.63;56.42;99207.56;5075840;28;45473;-68
2022/04/11 08:42:23;;;;;;;;;10.00;10.00;;;;;11.77;55.57;99207.88;5076542;27;46204;-68
2022/04/11 08:44:54;;;;;;;;;13.00;10.33;;;;;11.84;54.90;99195.25;5076353;27;45450;-69
2022/04/11 08:47:19;;;;;;;;;9.33;8.67;;;;;11.85;55.06;99200.47;5076459;27;45346;-68
2022/04/11 08:49:45;;;;;;;;;8.67;8.67;;;;;11.85;54.78;99215.47;5076011;27;45264;-68
2022/04/11 08:52:10;;;;;;;;;11.00;11.00;;;;;11.83;54.22;99210.25;5073773;28;47344;-68
2022/04/11 08:54:36;;;;;;;;;12.33;9.33;;;;;11.79;55.20;99203.38;5076121;28;45457;-68
2022/04/11 08:57:02;;;;;;;;;11.67;10.33;;;;;11.75;55.17;99193.84;5067927;28;45471;-68
2022/04/11 08:59:32;;;;;;;;;12.67;12.00;;;;;11.69;54.50;99212.59;5075740;27;45374;-68
2022/04/11 09:01:57;;;;;;;;;13.00;13.00;;;;;11.70;54.62;99189.69;5064432;27;46515;-68
2022/04/11 09:04:23;;;;;;;;;13.00;12.00;;;;;11.65;54.68;99210.16;5069768;27;45500;-68
2022/04/11 09:06:56;;;;;;;;;13.67;11.67;;;;;11.59;53.91;99194.56;5074776;28;45818;-68
2022/04/11 09:09:40;;;;;;;;;12.33;10.67;;;;;11.57;54.82;99193.75;5072366;27;45419;-68
2022/04/11 09:12:05;;;;;;;;;14.33;11.33;;;;;11.58;54.22;99200.75;5074722;27;45390;-68
2022/04/11 09:14:32;;;;;;;;;9.67;9.00;;;;;11.60;54.82;99201.56;5074861;28;45509;-67
2022/04/11 09:16:58;;;;;;;;;14.67;13.67;;;;;11.57;53.89;99186.72;5075348;27;45466;-68
2022/04/11 09:19:25;;;;;;;;;10.00;9.33;;;;;11.54;54.68;99186.88;5075313;28;45385;-68
2022/04/11 09:21:53;;;;;;;;;11.67;10.00;;;;;11.52;53.99;99189.56;5074082;27;45575;-68
2022/04/11 09:24:19;;;;;;;;;10.33;9.67;;;;;11.53;54.57;99188.66;5074934;28;45358;-68
2022/04/11 09:26:50;;;;;;;;;9.00;6.67;;;;;11.54;54.27;99181.59;5074848;28;45485;-67
2022/04/11 09:29:15;;;;;;;;;10.33;9.00;;;;;11.56;54.77;99169.19;5075118;27;45458;-67
2022/04/11 09:31:41;;;;;;;;;10.67;10.67;;;;;11.63;54.09;99167.09;5074201;27;45411;-68
2022/04/11 09:34:26;;;;;;;;;11.50;10.25;;;;;11.70;54.22;99160.66;5073285;28;45428;-67
2022/04/11 09:36:54;;;;;;;;;12.67;11.00;;;;;11.77;53.38;99160.31;5073509;27;45398;-67
2022/04/11 09:39:24;;;;;;;;;10.50;8.75;;;;;11.84;54.29;99169.72;5073263;27;45405;-67
2022/04/11 09:41:52;;;;;;;;;15.33;11.00;;;;;11.97;53.28;99159.44;5074299;27;46305;-67
2022/04/11 09:44:22;;;;;;;;;11.25;7.75;;;;;12.08;53.56;99154.50;5073888;27;45403;-67
2022/04/11 09:46:49;;;;;;;;;9.75;8.75;;;;;12.19;52.60;99154.91;5069710;28;45492;-67
2022/04/11 09:49:15;;;;;;;;;9.25;8.25;;;;;12.31;52.80;99142.03;5064547;28;45563;-66
2022/04/11 09:52:02;;;;;;;;;5.00;5.00;;;;;12.41;52.55;99145.94;5073027;27;46271;-67
2022/04/11 09:54:29;;;;;;;;;6.25;4.25;;;;;12.49;51.74;99157.03;5070618;28;45886;-67
2022/04/11 09:56:58;;;;;;;;;8.75;7.00;;;;;12.61;52.39;99129.13;5074184;27;45437;-66
2022/04/11 09:59:24;;;;;;;;;2.75;1.00;;;;;12.75;50.47;99135.47;5074165;27;45441;-68
2022/04/11 10:01:52;;;;;;;;;8.25;7.75;;;;;12.88;49.94;99122.53;5073952;28;45618;-66
2022/04/11 10:04:19;;;;;;;;;6.75;6.75;;;;;12.99;50.48;99125.47;5074195;27;45399;-66
2022/04/11 10:06:44;;;;;;;;;5.25;5.25;;;;;13.12;51.49;99120.44;5073151;27;45406;-66
2022/04/11 10:09:11;;;;;;;;;7.75;7.25;;;;;13.25;50.04;99119.75;5072112;27;45434;-67
2022/04/11 10:11:36;;;;;;;;;6.00;6.00;;;;;13.37;50.23;99141.28;5072801;27;46074;-66
2022/04/11 10:14:03;;;;;;;;;5.50;5.50;;;;;13.47;49.57;99122.16;5073732;28;45507;-66
2022/04/11 10:16:28;;;;;;;;;8.00;7.00;;;;;13.50;49.25;99116.72;5073734;27;45426;-66
2022/04/11 10:19:01;;;;;;;;;4.75;4.75;;;;;13.56;49.63;99104.97;5073992;28;45424;-66
2022/04/11 10:21:28;;;;;;;;;3.50;3.00;;;;;13.62;49.16;99104.63;5072659;27;45598;-66
2022/04/11 10:24:01;;;;;;;;;6.25;5.00;;;;;13.66;48.94;99105.31;5073670;27;45441;-66
2022/04/11 10:26:43;;;;;;;;;3.50;3.50;;;;;13.70;47.86;99097.13;5073772;27;45515;-66
2022/04/11 10:29:34;;;;;;;;;4.25;4.25;;;;;13.75;47.98;99097.72;5073693;27;45435;-66
2022/04/11 10:32:09;;;;;;;;;3.50;3.25;;;;;13.83;48.38;99092.03;5085723;27;48348;-66
2022/04/11 10:34:55;;;;;;;;;5.00;4.25;;;;;13.93;46.61;99079.97;5074269;28;45419;-66
2022/04/11 10:37:25;;;;;;;;;5.00;4.00;;;;;14.02;47.99;99066.22;5060032;28;45730;-68
2022/04/11 10:39:52;;;;;;;;;5.00;5.00;;;;;14.15;47.96;99077.88;5072194;27;45559;-65
2022/04/11 10:42:17;;;;;;;;;3.00;3.00;;;;;14.25;46.68;99070.25;5071841;28;45627;-65
2022/04/11 10:44:53;;;;;;;;;2.75;2.75;;;;;14.33;46.98;99060.94;5073396;28;45449;-65
2022/04/11 10:47:21;;;;;;;;;3.50;3.50;;;;;14.50;46.84;99056.50;5073898;28;45398;-66
2022/04/11 10:49:49;;;;;;;;;4.00;4.00;;;;;14.65;45.18;99058.28;5073323;27;45544;-66
2022/04/11 10:52:31;;;;;;;;;5.50;4.00;;;;;14.79;45.25;99052.16;5072309;27;45405;-66
2022/04/11 10:55:25;;;;;;;;;3.50;2.00;;;;;14.88;44.32;99049.00;5072014;28;45571;-66
2022/04/11 10:57:56;;;;;;;;;3.75;3.75;;;;;14.97;44.61;99032.50;5073800;27;45558;-67
2022/04/11 11:00:33;;;;;;;;;2.75;2.75;;;;;15.04;44.67;99025.91;5073195;27;45488;-66
2022/04/11 11:03:01;;;;;;;;;2.50;2.50;;;;;15.16;43.25;99022.50;5073608;27;46040;-67
2022/04/11 11:05:48;;;;;;;;;3.00;3.00;;;;;15.26;45.51;99009.50;5073347;28;45522;-66
2022/04/11 11:08:14;;;;;;;;;2.00;2.00;;;;;15.41;44.09;98991.78;5070051;28;45304;-66
2022/04/11 11:11:00;;;;;;;;;2.75;2.75;;;;;15.58;43.99;99007.59;5072911;27;45428;-66
2022/04/11 11:13:32;;;;;;;;;3.50;3.00;;;;;15.77;43.88;98994.81;5071536;27;47055;-66
2022/04/11 11:15:58;;;;;;;;;1.60;1.60;;;;;15.96;42.95;98991.84;5072619;27;45525;-66
2022/04/11 11:18:24;;;;;;;;;2.75;2.00;;;;;16.09;42.71;98981.28;5073335;27;45450;-66
2022/04/11 11:20:51;;;;;;;;;2.75;2.25;;;;;16.22;43.41;98974.22;5072703;27;45378;-66
2022/04/11 11:23:31;;;;;;;;;2.75;2.00;;;;;16.38;43.54;98972.25;5074250;27;45458;-66
2022/04/11 11:26:17;;;;;;;;;2.20;2.20;;;;;16.55;42.14;98981.78;5061240;28;45695;-66
2022/04/11 11:28:43;;;;;;;;;1.25;1.00;;;;;16.69;43.02;98969.28;5076411;27;45435;-66
2022/04/11 11:31:09;;;;;;;;;1.00;1.00;;;;;16.90;43.42;98964.31;5076705;28;45358;-66